createdAt,value
2019-05-17T00:01:18.650Z,8.03
2019-05-17T00:03:51.826Z,8.10
2019-05-17T00:06:27.570Z,8.06
2019-05-17T00:09:01.268Z,8.06
2019-05-17T00:11:36.775Z,8.06
2019-05-17T00:14:10.641Z,8.08
2019-05-17T00:16:46.797Z,8.12
2019-05-17T00:19:19.407Z,8.12
2019-05-17T00:21:52.393Z,8.14
2019-05-17T00:24:26.639Z,8.11
2019-05-17T00:27:00.688Z,8.05
2019-05-17T00:29:33.974Z,8.04
2019-05-17T00:32:07.061Z,8.01
2019-05-17T00:34:40.815Z,7.96
2019-05-17T00:37:17.374Z,8.00
2019-05-17T00:39:51.200Z,7.96
2019-05-17T00:42:26.414Z,7.97
2019-05-17T00:45:00.031Z,7.98
2019-05-17T00:47:33.385Z,7.97
2019-05-17T00:50:07.689Z,8.04
2019-05-17T00:52:41.433Z,7.97
2019-05-17T00:55:14.783Z,7.97
2019-05-17T00:57:48.127Z,7.99
2019-05-17T01:00:21.533Z,7.98
2019-05-17T01:02:54.631Z,7.96
2019-05-17T01:05:27.717Z,7.99
2019-05-17T01:08:01.104Z,7.98
2019-05-17T01:10:36.682Z,7.96
2019-05-17T01:13:09.404Z,7.97
2019-05-17T01:15:42.193Z,7.94
2019-05-17T01:18:16.236Z,7.99
2019-05-17T01:20:48.998Z,7.91
2019-05-17T01:23:21.982Z,7.89
2019-05-17T01:25:56.698Z,7.89
2019-05-17T01:28:30.403Z,7.87
2019-05-17T01:31:06.483Z,7.95
2019-05-17T01:33:39.764Z,7.91
2019-05-17T01:36:12.951Z,7.89
2019-05-17T01:38:46.917Z,7.87
2019-05-17T01:41:19.962Z,7.89
2019-05-17T01:43:53.163Z,7.93
2019-05-17T01:46:26.512Z,7.88
2019-05-17T01:49:00.381Z,7.91
2019-05-17T01:51:34.088Z,7.92
2019-05-17T01:54:07.396Z,7.93
2019-05-17T01:56:40.721Z,7.91
2019-05-17T01:59:13.726Z,7.93
2019-05-17T02:01:48.690Z,7.92
2019-05-17T02:04:21.659Z,7.92
2019-05-17T02:06:53.857Z,7.89
2019-05-17T02:09:37.248Z,7.89
2019-05-17T02:12:02.130Z,7.96
2019-05-17T02:14:37.422Z,7.89
2019-05-17T02:17:10.670Z,7.96
2019-05-17T02:19:46.450Z,7.91
2019-05-17T02:22:18.386Z,7.92
2019-05-17T02:24:52.821Z,7.90
2019-05-17T02:27:32.155Z,7.89
2019-05-17T02:30:02.614Z,7.91
2019-05-17T02:32:37.648Z,7.88
2019-05-17T02:35:14.402Z,7.90
2019-05-17T02:37:45.616Z,7.90
2019-05-17T02:40:18.759Z,7.87
2019-05-17T16:33:51.658Z,15.33
2019-05-17T16:36:25.203Z,15.21
2019-05-17T16:38:57.966Z,15.22
2019-05-17T16:41:31.620Z,15.20
2019-05-17T16:44:05.112Z,15.12
2019-05-17T16:46:38.941Z,15.01
2019-05-17T16:49:12.498Z,14.78
2019-05-17T16:51:45.474Z,14.71
2019-05-17T16:54:18.811Z,14.71
2019-05-17T16:56:52.228Z,14.57
2019-05-17T16:59:25.793Z,14.48
2019-05-17T17:01:58.993Z,14.41
2019-05-17T17:04:32.496Z,14.27
2019-05-17T17:07:07.158Z,14.21
2019-05-17T17:09:40.213Z,14.22
2019-05-17T17:12:13.727Z,14.11
2019-05-17T17:14:47.182Z,14.12
2019-05-17T17:17:20.155Z,14.11
2019-05-17T17:19:53.815Z,14.06
2019-05-17T17:22:27.163Z,14.01
2019-05-17T17:25:00.647Z,13.98
2019-05-17T17:27:34.629Z,14.01
2019-05-17T17:30:07.995Z,13.94
2019-05-17T17:32:41.549Z,13.98
2019-05-17T17:35:15.665Z,13.95
2019-05-17T17:37:47.964Z,13.80
2019-05-17T17:40:21.068Z,13.85
2019-05-17T17:42:53.774Z,13.81
2019-05-17T17:45:26.709Z,13.76
2019-05-17T17:48:00.154Z,13.74
2019-05-17T17:50:33.267Z,13.70
2019-05-17T17:53:07.016Z,13.78
2019-05-17T17:55:40.466Z,13.65
2019-05-17T17:58:13.537Z,13.69
2019-05-17T18:00:47.443Z,13.64
2019-05-17T18:03:21.761Z,13.61
2019-05-17T18:05:55.158Z,13.60
2019-05-17T18:08:28.299Z,13.61
2019-05-17T18:11:01.343Z,13.55
2019-05-17T18:13:34.528Z,13.46
2019-05-17T18:16:08.105Z,13.41
2019-05-17T18:18:41.618Z,13.39
2019-05-17T18:21:15.000Z,13.25
2019-05-17T18:23:48.653Z,13.22
2019-05-17T18:26:22.118Z,13.09
2019-05-17T18:28:55.536Z,13.05
2019-05-17T18:31:28.590Z,12.98
2019-05-17T18:34:01.402Z,12.93
2019-05-17T18:36:34.780Z,12.88
2019-05-17T18:39:08.287Z,12.88
2019-05-17T18:41:43.218Z,12.80
2019-05-17T18:44:27.189Z,12.72
2019-05-17T18:46:51.368Z,12.75
2019-05-17T18:49:24.734Z,12.70
2019-05-17T18:51:58.247Z,12.71
2019-05-17T18:54:31.444Z,12.68
2019-05-17T18:57:05.400Z,12.67
2019-05-17T18:59:38.143Z,12.67
2019-05-17T19:02:11.223Z,12.62
2019-05-17T19:04:44.403Z,12.59
2019-05-17T19:07:17.225Z,12.55
2019-05-17T19:09:51.019Z,12.48
2019-05-17T19:12:25.055Z,12.42
2019-05-17T19:15:00.645Z,12.37
2019-05-17T19:17:33.845Z,12.30
2019-05-17T19:20:06.847Z,12.24
2019-05-17T19:22:40.519Z,12.20
2019-05-17T19:25:14.048Z,12.13
2019-05-17T19:27:46.810Z,12.09
2019-05-17T19:30:19.773Z,12.03
2019-05-17T19:32:53.310Z,11.99
2019-05-17T19:35:26.325Z,11.92
2019-05-17T19:38:00.657Z,11.91
2019-05-17T19:40:33.753Z,11.83
2019-05-17T19:43:06.102Z,11.79
2019-05-17T19:45:39.584Z,11.78
2019-05-17T19:48:12.896Z,11.68
2019-05-17T19:50:46.453Z,11.64
2019-05-17T19:53:24.230Z,11.58
2019-05-17T19:55:56.943Z,11.54
2019-05-17T19:58:30.060Z,11.50
2019-05-17T20:01:04.012Z,11.45
2019-05-17T20:03:37.657Z,11.43
2019-05-17T20:06:10.840Z,11.39
2019-05-17T20:08:44.038Z,11.35
2019-05-17T20:11:17.408Z,11.30
2019-05-17T20:13:50.547Z,11.27
2019-05-17T20:16:26.119Z,11.33
2019-05-17T20:18:59.887Z,11.34
2019-05-17T20:21:34.395Z,11.40
2019-05-17T20:24:07.811Z,11.49
2019-05-17T20:26:41.336Z,11.55
2019-05-17T20:29:14.900Z,11.57
2019-05-17T20:31:48.004Z,11.58
2019-05-17T20:34:21.092Z,11.63
2019-05-17T20:36:54.652Z,11.64
2019-05-17T20:39:27.757Z,11.67
2019-05-17T20:42:01.428Z,11.67
2019-05-17T20:44:35.201Z,11.66
2019-05-17T20:47:09.683Z,11.62
2019-05-17T20:49:43.392Z,11.63
2019-05-17T20:52:16.098Z,11.62
2019-05-17T20:54:49.681Z,11.63
2019-05-17T20:57:23.653Z,11.63
2019-05-17T20:59:57.466Z,11.59
2019-05-17T21:02:30.757Z,11.61
2019-05-17T21:05:04.295Z,11.53
2019-05-17T21:07:37.724Z,11.55
2019-05-17T21:10:11.291Z,11.50
2019-05-17T21:12:44.788Z,11.49
2019-05-17T21:15:18.481Z,11.46
2019-05-17T21:17:51.191Z,11.44
2019-05-17T21:20:25.070Z,11.47
2019-05-17T21:22:58.546Z,11.40
2019-05-17T21:25:32.228Z,11.44
2019-05-17T21:28:06.124Z,11.44
2019-05-17T21:30:39.931Z,11.50
2019-05-17T21:33:13.774Z,11.44
2019-05-17T21:35:47.893Z,11.47
2019-05-17T21:38:21.173Z,11.47
2019-05-17T21:40:53.811Z,11.50
2019-05-17T21:43:27.285Z,11.46
2019-05-17T21:46:04.286Z,11.40
2019-05-17T21:48:37.540Z,11.44
2019-05-17T21:51:10.544Z,11.50
2019-05-17T21:53:43.594Z,11.51
2019-05-17T21:56:16.205Z,11.53
2019-05-17T21:58:49.560Z,11.51
2019-05-17T22:01:25.714Z,11.50
2019-05-17T22:03:59.624Z,11.53
2019-05-17T22:06:32.667Z,11.55
2019-05-17T22:09:07.255Z,11.51
2019-05-17T22:11:44.608Z,11.47
2019-05-17T22:14:18.716Z,11.43
2019-05-17T22:16:51.515Z,11.42
2019-05-17T22:19:25.163Z,11.42
2019-05-17T22:21:58.613Z,11.35
2019-05-17T22:24:31.979Z,11.36
2019-05-17T22:27:05.859Z,11.35
2019-05-17T22:29:38.898Z,11.32
2019-05-17T22:32:12.409Z,11.33
2019-05-17T22:34:46.798Z,11.30
2019-05-17T22:37:20.323Z,11.31
2019-05-17T22:39:53.944Z,11.30
2019-05-17T22:42:27.566Z,11.21
2019-05-17T22:45:01.322Z,11.18
2019-05-17T22:47:34.384Z,11.10
2019-05-17T22:50:07.783Z,11.01
2019-05-17T22:52:40.979Z,10.94
2019-05-17T22:55:14.295Z,10.94
2019-05-17T22:57:47.939Z,10.88
2019-05-17T23:00:20.368Z,10.84
2019-05-17T23:02:53.253Z,10.82
2019-05-17T23:05:26.807Z,10.82
2019-05-17T23:08:00.708Z,10.71
2019-05-17T23:10:35.132Z,10.71
2019-05-17T23:13:10.132Z,10.69
2019-05-17T23:16:02.565Z,10.72
2019-05-17T23:18:36.113Z,10.70
2019-05-17T23:21:10.231Z,10.71
2019-05-17T23:23:44.078Z,10.73
2019-05-17T23:26:17.504Z,10.73
2019-05-17T23:28:51.275Z,10.71
2019-05-17T23:31:24.303Z,10.73
2019-05-17T23:33:57.146Z,10.83
2019-05-17T23:36:30.262Z,10.84
2019-05-17T23:39:04.789Z,10.87
2019-05-17T23:41:38.030Z,10.86
2019-05-17T23:44:11.169Z,10.83
2019-05-17T23:46:44.972Z,10.82
2019-05-17T23:49:18.365Z,10.82
2019-05-17T23:51:51.799Z,10.76
2019-05-17T23:54:25.346Z,10.68
2019-05-17T23:56:58.391Z,10.58
2019-05-17T23:59:31.503Z,10.52
